Terminal Aerodrome Forecast
Issued by NWS Springfield, MO

Home | Current Version | Previous Version | Text Only | Print | Product List | Glossary On
Versions: 1 2 3 4 5 6 7 8 9 10 11 12 13 14 15 16 17 18 19
000
FTUS43 KSGF 201300 AAA
TAFSGF
TAF AMD
KSGF 201324Z 2013/2112 14013G23KT 6SM -SHRA BKN015 BKN050
      TEMPO 2013/2015 3SM -SHRA BKN005
     FM201500 03010KT 4SM BR OVC005
     FM210600 35006KT P6SM OVC004
     FM211000 36006KT P6SM SCT004 OVC015=

USA.gov is the U.S. government's official web portal to all federal, state and local government web resources and services.